Terminal Aerodrome Forecast
Issued by NWS

Home | Current Version | Previous Version | Text Only | Print | Product List | Glossary On
Versions: 1 2 3 4 5 6 7 8 9 10 11 12 13 14 15 16 17
000
FTUS46 KEKA 251120
TAFUKI
TAF
KUKI 251120Z 2512/2612 12003KT P6SM SCT025 OVC035
     FM251800 20008KT P6SM BKN050
     FM260900 16006KT 6SM -SHRA BR FEW015 OVC050=

USA.gov is the U.S. government's official web portal to all federal, state and local government web resources and services.